sensor_id;sensor_type;location;lat;lon;timestamp;pressure;altitude;pressure_sealevel;temperature;humidity
17781;BME280;8498;52.516;13.790;2023-04-15T00:03:58;100009.16;;;10.22;100.00
17781;BME280;8498;52.516;13.790;2023-04-15T00:09:21;100008.19;;;10.23;100.00
17781;BME280;8498;52.516;13.790;2023-04-15T00:14:44;100013.50;;;10.23;100.00
17781;BME280;8498;52.516;13.790;2023-04-15T00:20:06;100006.28;;;10.25;100.00
17781;BME280;8498;52.516;13.790;2023-04-15T00:25:29;100004.09;;;10.30;100.00
17781;BME280;8498;52.516;13.790;2023-04-15T00:30:51;100007.59;;;10.31;100.00
17781;BME280;8498;52.516;13.790;2023-04-15T00:36:14;100010.25;;;10.31;100.00
17781;BME280;8498;52.516;13.790;2023-04-15T00:48:16;100001.44;;;10.30;100.00
17781;BME280;8498;52.516;13.790;2023-04-15T00:53:39;100003.13;;;10.32;100.00
17781;BME280;8498;52.516;13.790;2023-04-15T00:59:01;99993.00;;;10.25;100.00
17781;BME280;8498;52.516;13.790;2023-04-15T01:04:24;100001.94;;;10.24;100.00
17781;BME280;8498;52.516;13.790;2023-04-15T01:09:47;99993.75;;;10.27;100.00
17781;BME280;8498;52.516;13.790;2023-04-15T01:15:10;99992.75;;;10.28;100.00
17781;BME280;8498;52.516;13.790;2023-04-15T01:20:33;99987.44;;;10.28;100.00
17781;BME280;8498;52.516;13.790;2023-04-15T01:25:56;99986.72;;;10.26;100.00
17781;BME280;8498;52.516;13.790;2023-04-15T01:31:19;99997.47;;;10.25;100.00
17781;BME280;8498;52.516;13.790;2023-04-15T01:36:41;99993.75;;;10.27;100.00
17781;BME280;8498;52.516;13.790;2023-04-15T01:42:04;99989.97;;;10.30;100.00
17781;BME280;8498;52.516;13.790;2023-04-15T01:47:26;99987.22;;;10.32;100.00
17781;BME280;8498;52.516;13.790;2023-04-15T01:52:49;99980.31;;;10.29;100.00
17781;BME280;8498;52.516;13.790;2023-04-15T01:58:12;99984.09;;;10.26;100.00
17781;BME280;8498;52.516;13.790;2023-04-15T02:03:36;99980.56;;;10.26;100.00
17781;BME280;8498;52.516;13.790;2023-04-15T02:08:59;99979.34;;;10.30;100.00
17781;BME280;8498;52.516;13.790;2023-04-15T02:14:22;99968.50;;;10.33;100.00
17781;BME280;8498;52.516;13.790;2023-04-15T02:19:44;99983.09;;;10.39;100.00
17781;BME280;8498;52.516;13.790;2023-04-15T02:25:07;99994.34;;;10.42;100.00
17781;BME280;8498;52.516;13.790;2023-04-15T02:30:32;99997.59;;;10.46;100.00
17781;BME280;8498;52.516;13.790;2023-04-15T02:35:56;99990.38;;;10.48;100.00
17781;BME280;8498;52.516;13.790;2023-04-15T02:41:19;99985.41;;;10.43;100.00
17781;BME280;8498;52.516;13.790;2023-04-15T02:46:44;99989.38;;;10.49;100.00
17781;BME280;8498;52.516;13.790;2023-04-15T02:52:10;99992.75;;;10.51;100.00
17781;BME280;8498;52.516;13.790;2023-04-15T02:57:32;99991.78;;;10.52;100.00
17781;BME280;8498;52.516;13.790;2023-04-15T03:03:04;99987.69;;;10.59;100.00
17781;BME280;8498;52.516;13.790;2023-04-15T03:08:27;99987.94;;;10.67;100.00
17781;BME280;8498;52.516;13.790;2023-04-15T03:13:51;99991.19;;;10.71;100.00
17781;BME280;8498;52.516;13.790;2023-04-15T03:19:20;99991.78;;;10.74;100.00
17781;BME280;8498;52.516;13.790;2023-04-15T03:24:43;99993.94;;;10.80;100.00
17781;BME280;8498;52.516;13.790;2023-04-15T03:30:06;99993.09;;;10.80;100.00
17781;BME280;8498;52.516;13.790;2023-04-15T03:35:31;100000.09;;;10.81;100.00
17781;BME280;8498;52.516;13.790;2023-04-15T03:40:53;99997.59;;;10.79;100.00
17781;BME280;8498;52.516;13.790;2023-04-15T03:46:17;100000.94;;;10.81;100.00
17781;BME280;8498;52.516;13.790;2023-04-15T03:51:39;100004.09;;;10.86;100.00
17781;BME280;8498;52.516;13.790;2023-04-15T03:57:02;100000.47;;;10.87;100.00
17781;BME280;8498;52.516;13.790;2023-04-15T04:02:24;100004.34;;;10.83;100.00
17781;BME280;8498;52.516;13.790;2023-04-15T04:07:47;100010.25;;;10.87;100.00
17781;BME280;8498;52.516;13.790;2023-04-15T04:13:09;100013.50;;;10.90;100.00
17781;BME280;8498;52.516;13.790;2023-04-15T04:18:32;100016.16;;;10.90;100.00
17781;BME280;8498;52.516;13.790;2023-04-15T04:23:55;100025.13;;;10.89;100.00
17781;BME280;8498;52.516;13.790;2023-04-15T04:29:17;100021.63;;;10.89;100.00
17781;BME280;8498;52.516;13.790;2023-04-15T04:34:40;100020.03;;;10.86;100.00
17781;BME280;8498;52.516;13.790;2023-04-15T04:40:03;100028.97;;;10.85;100.00
17781;BME280;8498;52.516;13.790;2023-04-15T04:45:25;100020.28;;;10.83;100.00
17781;BME280;8498;52.516;13.790;2023-04-15T04:50:48;100024.63;;;10.84;100.00
17781;BME280;8498;52.516;13.790;2023-04-15T04:56:10;100033.56;;;10.83;100.00
17781;BME280;8498;52.516;13.790;2023-04-15T05:01:33;100025.59;;;10.83;100.00
17781;BME280;8498;52.516;13.790;2023-04-15T05:06:55;100031.13;;;10.80;100.00
17781;BME280;8498;52.516;13.790;2023-04-15T05:12:18;100037.91;;;10.84;100.00
17781;BME280;8498;52.516;13.790;2023-04-15T05:17:40;100045.75;;;10.86;100.00
17781;BME280;8498;52.516;13.790;2023-04-15T05:23:02;100059.91;;;10.86;100.00
17781;BME280;8498;52.516;13.790;2023-04-15T05:28:25;100063.28;;;10.88;100.00
17781;BME280;8498;52.516;13.790;2023-04-15T05:33:48;100056.75;;;10.92;100.00
17781;BME280;8498;52.516;13.790;2023-04-15T05:39:10;100049.50;;;10.94;100.00
17781;BME280;8498;52.516;13.790;2023-04-15T05:44:33;100050.22;;;10.96;100.00
17781;BME280;8498;52.516;13.790;2023-04-15T05:49:55;100046.72;;;10.96;100.00
17781;BME280;8498;52.516;13.790;2023-04-15T05:55:20;100053.72;;;11.08;100.00
17781;BME280;8498;52.516;13.790;2023-04-15T06:00:43;100059.25;;;11.16;100.00
17781;BME280;8498;52.516;13.790;2023-04-15T06:06:05;100062.16;;;11.13;100.00
17781;BME280;8498;52.516;13.790;2023-04-15T06:11:29;100051.41;;;11.15;99.47
17781;BME280;8498;52.516;13.790;2023-04-15T06:16:51;100058.19;;;11.19;99.01
17781;BME280;8498;52.516;13.790;2023-04-15T06:22:14;100054.78;;;11.17;98.54
17781;BME280;8498;52.516;13.790;2023-04-15T06:27:36;100062.75;;;11.28;98.06
17781;BME280;8498;52.516;13.790;2023-04-15T06:32:59;100074.81;;;11.32;97.76
17781;BME280;8498;52.516;13.790;2023-04-15T06:38:21;100079.44;;;11.30;97.26
17781;BME280;8498;52.516;13.790;2023-04-15T06:43:44;100087.75;;;11.36;97.14
17781;BME280;8498;52.516;13.790;2023-04-15T06:49:06;100082.41;;;11.48;96.97
17781;BME280;8498;52.516;13.790;2023-04-15T06:54:29;100090.25;;;11.60;97.23
17781;BME280;8498;52.516;13.790;2023-04-15T06:59:51;100097.72;;;11.77;97.83
17781;BME280;8498;52.516;13.790;2023-04-15T07:05:15;100106.53;;;11.67;96.95
17781;BME280;8498;52.516;13.790;2023-04-15T07:10:38;100116.44;;;11.76;97.83
17781;BME280;8498;52.516;13.790;2023-04-15T07:16:00;100119.41;;;11.51;97.80
17781;BME280;8498;52.516;13.790;2023-04-15T07:21:24;100128.47;;;11.48;98.61
17781;BME280;8498;52.516;13.790;2023-04-15T07:26:46;100129.44;;;11.36;98.82
17781;BME280;8498;52.516;13.790;2023-04-15T07:32:09;100129.69;;;11.33;99.54
17781;BME280;8498;52.516;13.790;2023-04-15T07:37:32;100121.25;;;11.28;99.53
17781;BME280;8498;52.516;13.790;2023-04-15T07:42:55;100138.28;;;11.25;99.94
17781;BME280;8498;52.516;13.790;2023-04-15T07:48:18;100128.63;;;11.24;100.00
17781;BME280;8498;52.516;13.790;2023-04-15T07:53:40;100125.84;;;11.26;100.00
17781;BME280;8498;52.516;13.790;2023-04-15T07:59:03;100133.56;;;11.29;99.80
17781;BME280;8498;52.516;13.790;2023-04-15T08:04:27;100151.47;;;11.27;99.33
17781;BME280;8498;52.516;13.790;2023-04-15T08:09:50;100152.66;;;11.34;99.94
17781;BME280;8498;52.516;13.790;2023-04-15T08:15:12;100156.28;;;11.33;99.80
17781;BME280;8498;52.516;13.790;2023-04-15T08:20:35;100152.91;;;11.31;100.00
17781;BME280;8498;52.516;13.790;2023-04-15T08:25:57;100160.50;;;11.35;100.00
17781;BME280;8498;52.516;13.790;2023-04-15T08:31:19;100160.50;;;11.47;100.00
17781;BME280;8498;52.516;13.790;2023-04-15T08:36:43;100167.53;;;11.48;100.00
17781;BME280;8498;52.516;13.790;2023-04-15T08:42:10;100167.97;;;11.53;100.00
17781;BME280;8498;52.516;13.790;2023-04-15T08:47:35;100171.97;;;11.58;100.00
17781;BME280;8498;52.516;13.790;2023-04-15T08:53:00;100171.00;;;11.70;100.00
17781;BME280;8498;52.516;13.790;2023-04-15T08:58:23;100173.38;;;11.73;100.00
17781;BME280;8498;52.516;13.790;2023-04-15T09:03:48;100182.50;;;11.71;100.00
17781;BME280;8498;52.516;13.790;2023-04-15T09:09:11;100173.91;;;11.79;100.00
17781;BME280;8498;52.516;13.790;2023-04-15T09:14:35;100183.19;;;11.84;100.00
17781;BME280;8498;52.516;13.790;2023-04-15T09:20:17;100189.22;;;11.97;99.68
17781;BME280;8498;52.516;13.790;2023-04-15T09:25:40;100181.34;;;11.96;99.04
17781;BME280;8498;52.516;13.790;2023-04-15T09:31:06;100198.94;;;11.76;100.00
17781;BME280;8498;52.516;13.790;2023-04-15T09:36:37;100198.81;;;11.77;100.00
17781;BME280;8498;52.516;13.790;2023-04-15T09:42:12;100211.63;;;11.72;100.00
17781;BME280;8498;52.516;13.790;2023-04-15T09:47:35;100212.84;;;11.68;100.00
17781;BME280;8498;52.516;13.790;2023-04-15T09:52:58;100220.84;;;11.80;100.00
17781;BME280;8498;52.516;13.790;2023-04-15T10:03:46;100229.59;;;12.25;100.00
17781;BME280;8498;52.516;13.790;2023-04-15T10:09:08;100220.94;;;12.00;100.00
17781;BME280;8498;52.516;13.790;2023-04-15T10:14:33;100232.88;;;12.06;100.00
17781;BME280;8498;52.516;13.790;2023-04-15T10:19:56;100235.44;;;11.96;100.00
17781;BME280;8498;52.516;13.790;2023-04-15T10:25:20;100238.38;;;11.93;100.00
17781;BME280;8498;52.516;13.790;2023-04-15T10:30:43;100247.06;;;11.84;100.00
17781;BME280;8498;52.516;13.790;2023-04-15T10:36:06;100239.91;;;11.73;100.00
17781;BME280;8498;52.516;13.790;2023-04-15T10:41:29;100243.09;;;11.79;100.00
17781;BME280;8498;52.516;13.790;2023-04-15T10:46:52;100247.47;;;11.80;100.00
17781;BME280;8498;52.516;13.790;2023-04-15T10:52:17;100247.69;;;11.88;100.00
17781;BME280;8498;52.516;13.790;2023-04-15T10:57:41;100253.09;;;11.97;100.00
17781;BME280;8498;52.516;13.790;2023-04-15T11:03:08;100267.75;;;12.03;100.00
17781;BME280;8498;52.516;13.790;2023-04-15T11:08:57;100261.94;;;12.09;100.00
17781;BME280;8498;52.516;13.790;2023-04-15T11:14:21;100261.22;;;11.96;100.00
17781;BME280;8498;52.516;13.790;2023-04-15T11:19:43;100271.16;;;11.94;100.00
17781;BME280;8498;52.516;13.790;2023-04-15T11:25:06;100280.56;;;11.98;100.00
17781;BME280;8498;52.516;13.790;2023-04-15T11:30:31;100288.91;;;12.04;100.00
17781;BME280;8498;52.516;13.790;2023-04-15T11:35:54;100291.22;;;11.98;100.00
17781;BME280;8498;52.516;13.790;2023-04-15T11:41:21;100286.25;;;12.04;100.00
17781;BME280;8498;52.516;13.790;2023-04-15T11:46:44;100303.69;;;12.08;100.00
17781;BME280;8498;52.516;13.790;2023-04-15T11:52:10;100306.94;;;12.12;100.00
17781;BME280;8498;52.516;13.790;2023-04-15T11:57:34;100304.16;;;12.25;100.00
17781;BME280;8498;52.516;13.790;2023-04-15T12:14:30;100307.84;;;12.44;100.00
17781;BME280;8498;52.516;13.790;2023-04-15T12:19:59;100313.38;;;12.64;100.00
17781;BME280;8498;52.516;13.790;2023-04-15T12:25:33;100319.09;;;12.80;100.00
17781;BME280;8498;52.516;13.790;2023-04-15T12:30:55;100312.63;;;12.94;100.00
17781;BME280;8498;52.516;13.790;2023-04-15T12:36:18;100326.41;;;12.99;100.00
17781;BME280;8498;52.516;13.790;2023-04-15T12:41:40;100330.94;;;13.19;100.00
17781;BME280;8498;52.516;13.790;2023-04-15T12:47:03;100340.53;;;13.10;100.00
17781;BME280;8498;52.516;13.790;2023-04-15T12:52:25;100339.69;;;13.10;100.00
17781;BME280;8498;52.516;13.790;2023-04-15T12:57:48;100345.41;;;13.16;100.00
17781;BME280;8498;52.516;13.790;2023-04-15T13:03:10;100348.91;;;13.17;100.00
17781;BME280;8498;52.516;13.790;2023-04-15T13:08:33;100359.72;;;12.72;100.00
17781;BME280;8498;52.516;13.790;2023-04-15T13:13:58;100368.81;;;12.70;100.00
17781;BME280;8498;52.516;13.790;2023-04-15T13:19:21;100368.50;;;12.52;100.00
17781;BME280;8498;52.516;13.790;2023-04-15T13:24:44;100374.75;;;12.73;100.00
17781;BME280;8498;52.516;13.790;2023-04-15T13:30:06;100370.75;;;12.68;100.00
17781;BME280;8498;52.516;13.790;2023-04-15T13:35:31;100382.88;;;12.72;100.00
17781;BME280;8498;52.516;13.790;2023-04-15T13:40:54;100381.91;;;12.62;100.00
17781;BME280;8498;52.516;13.790;2023-04-15T13:46:16;100394.41;;;12.61;100.00
17781;BME280;8498;52.516;13.790;2023-04-15T13:51:39;100399.09;;;12.69;100.00
17781;BME280;8498;52.516;13.790;2023-04-15T13:57:01;100398.00;;;12.71;100.00
17781;BME280;8498;52.516;13.790;2023-04-15T14:02:24;100400.03;;;12.79;100.00
17781;BME280;8498;52.516;13.790;2023-04-15T14:07:46;100402.69;;;12.90;100.00
17781;BME280;8498;52.516;13.790;2023-04-15T14:13:09;100409.81;;;12.90;100.00
17781;BME280;8498;52.516;13.790;2023-04-15T14:18:32;100410.06;;;12.98;100.00
17781;BME280;8498;52.516;13.790;2023-04-15T14:23:54;100429.25;;;12.80;100.00
17781;BME280;8498;52.516;13.790;2023-04-15T14:29:17;100433.94;;;12.88;100.00
17781;BME280;8498;52.516;13.790;2023-04-15T14:34:39;100438.31;;;12.89;100.00
17781;BME280;8498;52.516;13.790;2023-04-15T14:40:02;100443.19;;;12.73;100.00
17781;BME280;8498;52.516;13.790;2023-04-15T14:45:24;100445.34;;;12.79;100.00
17781;BME280;8498;52.516;13.790;2023-04-15T14:50:46;100456.75;;;12.81;100.00
17781;BME280;8498;52.516;13.790;2023-04-15T14:56:09;100447.03;;;12.91;100.00
17781;BME280;8498;52.516;13.790;2023-04-15T15:01:32;100461.31;;;12.90;100.00
17781;BME280;8498;52.516;13.790;2023-04-15T15:06:55;100459.38;;;12.92;100.00
17781;BME280;8498;52.516;13.790;2023-04-15T15:12:17;100465.25;;;12.75;100.00
17781;BME280;8498;52.516;13.790;2023-04-15T15:17:39;100475.63;;;12.89;100.00
17781;BME280;8498;52.516;13.790;2023-04-15T15:23:02;100477.31;;;13.01;100.00
17781;BME280;8498;52.516;13.790;2023-04-15T15:28:24;100479.88;;;12.92;100.00
17781;BME280;8498;52.516;13.790;2023-04-15T15:33:46;100482.19;;;12.96;100.00
17781;BME280;8498;52.516;13.790;2023-04-15T15:39:09;100491.47;;;13.02;100.00
17781;BME280;8498;52.516;13.790;2023-04-15T15:44:31;100490.94;;;12.76;100.00
17781;BME280;8498;52.516;13.790;2023-04-15T15:49:55;100498.19;;;12.74;100.00
17781;BME280;8498;52.516;13.790;2023-04-15T15:55:18;100501.59;;;12.76;100.00
17781;BME280;8498;52.516;13.790;2023-04-15T16:00:40;100505.22;;;12.75;100.00
17781;BME280;8498;52.516;13.790;2023-04-15T16:06:03;100509.72;;;12.85;100.00
17781;BME280;8498;52.516;13.790;2023-04-15T16:11:26;100516.28;;;13.36;100.00
17781;BME280;8498;52.516;13.790;2023-04-15T16:16:48;100519.69;;;13.70;100.00
17781;BME280;8498;52.516;13.790;2023-04-15T16:22:11;100521.47;;;13.80;97.31
17781;BME280;8498;52.516;13.790;2023-04-15T16:27:34;100530.88;;;13.84;95.87
17781;BME280;8498;52.516;13.790;2023-04-15T16:33:11;100530.69;;;13.44;96.62
17781;BME280;8498;52.516;13.790;2023-04-15T16:38:33;100550.25;;;13.11;97.56
17781;BME280;8498;52.516;13.790;2023-04-15T16:43:56;100536.72;;;12.92;99.69
17781;BME280;8498;52.516;13.790;2023-04-15T16:49:19;100550.91;;;12.81;100.00
17781;BME280;8498;52.516;13.790;2023-04-15T16:54:42;100549.81;;;12.73;100.00
17781;BME280;8498;52.516;13.790;2023-04-15T17:00:05;100570.91;;;12.76;100.00
17781;BME280;8498;52.516;13.790;2023-04-15T17:05:28;100570.41;;;12.71;100.00
17781;BME280;8498;52.516;13.790;2023-04-15T17:10:51;100570.28;;;12.72;100.00
17781;BME280;8498;52.516;13.790;2023-04-15T17:16:13;100579.97;;;12.62;100.00
17781;BME280;8498;52.516;13.790;2023-04-15T17:21:36;100577.81;;;12.56;100.00
17781;BME280;8498;52.516;13.790;2023-04-15T17:26:58;100588.69;;;12.53;100.00
17781;BME280;8498;52.516;13.790;2023-04-15T17:32:25;100602.47;;;12.47;100.00
17781;BME280;8498;52.516;13.790;2023-04-15T17:37:52;100603.81;;;12.41;100.00
17781;BME280;8498;52.516;13.790;2023-04-15T17:43:15;100611.16;;;12.38;100.00
17781;BME280;8498;52.516;13.790;2023-04-15T17:48:38;100616.59;;;12.36;100.00
17781;BME280;8498;52.516;13.790;2023-04-15T17:54:00;100613.47;;;12.31;100.00
17781;BME280;8498;52.516;13.790;2023-04-15T17:59:23;100616.47;;;12.27;100.00
17781;BME280;8498;52.516;13.790;2023-04-15T18:04:45;100632.56;;;12.25;100.00
17781;BME280;8498;52.516;13.790;2023-04-15T18:10:08;100640.81;;;12.22;100.00
17781;BME280;8498;52.516;13.790;2023-04-15T18:15:31;100659.66;;;12.19;100.00
17781;BME280;8498;52.516;13.790;2023-04-15T18:20:53;100662.56;;;12.16;100.00
17781;BME280;8498;52.516;13.790;2023-04-15T18:26:16;100668.13;;;12.13;100.00
17781;BME280;8498;52.516;13.790;2023-04-15T18:31:38;100667.50;;;12.09;100.00
17781;BME280;8498;52.516;13.790;2023-04-15T18:37:00;100675.59;;;12.08;100.00
17781;BME280;8498;52.516;13.790;2023-04-15T18:42:23;100685.50;;;12.06;100.00
17781;BME280;8498;52.516;13.790;2023-04-15T18:47:46;100694.44;;;12.05;100.00
17781;BME280;8498;52.516;13.790;2023-04-15T18:53:09;100698.09;;;12.04;100.00
17781;BME280;8498;52.516;13.790;2023-04-15T18:58:31;100707.16;;;12.01;100.00
17781;BME280;8498;52.516;13.790;2023-04-15T19:04:13;100710.69;;;12.02;100.00
17781;BME280;8498;52.516;13.790;2023-04-15T19:09:36;100715.25;;;12.00;100.00
17781;BME280;8498;52.516;13.790;2023-04-15T19:14:58;100719.00;;;11.97;100.00
17781;BME280;8498;52.516;13.790;2023-04-15T19:20:21;100714.63;;;11.96;100.00
17781;BME280;8498;52.516;13.790;2023-04-15T19:25:44;100727.19;;;11.94;100.00
17781;BME280;8498;52.516;13.790;2023-04-15T19:31:06;100736.16;;;11.93;100.00
17781;BME280;8498;52.516;13.790;2023-04-15T19:36:30;100730.84;;;11.93;100.00
17781;BME280;8498;52.516;13.790;2023-04-15T19:41:53;100740.84;;;11.90;100.00
17781;BME280;8498;52.516;13.790;2023-04-15T19:47:17;100749.59;;;11.92;100.00
17781;BME280;8498;52.516;13.790;2023-04-15T19:52:39;100747.88;;;11.91;100.00
17781;BME280;8498;52.516;13.790;2023-04-15T19:58:02;100752.56;;;11.87;100.00
17781;BME280;8498;52.516;13.790;2023-04-15T20:03:24;100760.56;;;11.87;100.00
17781;BME280;8498;52.516;13.790;2023-04-15T20:08:47;100758.94;;;11.85;100.00
17781;BME280;8498;52.516;13.790;2023-04-15T20:14:10;100757.38;;;11.82;100.00
17781;BME280;8498;52.516;13.790;2023-04-15T20:19:32;100761.97;;;11.80;100.00
17781;BME280;8498;52.516;13.790;2023-04-15T20:24:54;100773.84;;;11.74;100.00
17781;BME280;8498;52.516;13.790;2023-04-15T20:30:17;100774.94;;;11.72;100.00
17781;BME280;8498;52.516;13.790;2023-04-15T20:35:39;100771.63;;;11.68;100.00
17781;BME280;8498;52.516;13.790;2023-04-15T20:41:02;100775.16;;;11.69;100.00
17781;BME280;8498;52.516;13.790;2023-04-15T20:46:24;100788.34;;;11.70;100.00
17781;BME280;8498;52.516;13.790;2023-04-15T20:51:49;100793.13;;;11.65;100.00
17781;BME280;8498;52.516;13.790;2023-04-15T20:57:11;100788.66;;;11.66;100.00
17781;BME280;8498;52.516;13.790;2023-04-15T21:02:34;100796.03;;;11.62;100.00
17781;BME280;8498;52.516;13.790;2023-04-15T21:07:56;100793.13;;;11.65;100.00
17781;BME280;8498;52.516;13.790;2023-04-15T21:13:19;100800.91;;;11.68;100.00
17781;BME280;8498;52.516;13.790;2023-04-15T21:18:42;100811.56;;;11.68;100.00
17781;BME280;8498;52.516;13.790;2023-04-15T21:24:04;100816.03;;;11.68;100.00
17781;BME280;8498;52.516;13.790;2023-04-15T21:29:29;100823.91;;;11.69;100.00
17781;BME280;8498;52.516;13.790;2023-04-15T21:34:51;100826.88;;;11.65;100.00
17781;BME280;8498;52.516;13.790;2023-04-15T21:40:14;100828.16;;;11.59;100.00
17781;BME280;8498;52.516;13.790;2023-04-15T21:45:39;100838.63;;;11.62;100.00
17781;BME280;8498;52.516;13.790;2023-04-15T21:51:23;100850.63;;;11.68;100.00
17781;BME280;8498;52.516;13.790;2023-04-15T21:56:46;100845.59;;;11.63;100.00
17781;BME280;8498;52.516;13.790;2023-04-15T22:02:10;100845.00;;;11.60;100.00
17781;BME280;8498;52.516;13.790;2023-04-15T22:07:33;100862.22;;;11.54;100.00
17781;BME280;8498;52.516;13.790;2023-04-15T22:12:56;100861.16;;;11.57;100.00
17781;BME280;8498;52.516;13.790;2023-04-15T22:18:22;100864.78;;;11.56;100.00
17781;BME280;8498;52.516;13.790;2023-04-15T22:23:46;100869.25;;;11.55;100.00
17781;BME280;8498;52.516;13.790;2023-04-15T22:29:08;100876.28;;;11.56;100.00
17781;BME280;8498;52.516;13.790;2023-04-15T22:34:31;100878.06;;;11.56;100.00
17781;BME280;8498;52.516;13.790;2023-04-15T22:39:55;100881.59;;;11.56;100.00
17781;BME280;8498;52.516;13.790;2023-04-15T22:45:17;100878.28;;;11.53;100.00
17781;BME280;8498;52.516;13.790;2023-04-15T22:50:40;100887.13;;;11.53;100.00
17781;BME280;8498;52.516;13.790;2023-04-15T22:56:03;100895.22;;;11.52;100.00
17781;BME280;8498;52.516;13.790;2023-04-15T23:01:25;100898.94;;;11.49;100.00
17781;BME280;8498;52.516;13.790;2023-04-15T23:06:47;100902.56;;;11.48;100.00
17781;BME280;8498;52.516;13.790;2023-04-15T23:12:12;100912.44;;;11.46;100.00
17781;BME280;8498;52.516;13.790;2023-04-15T23:17:34;100919.47;;;11.47;100.00
17781;BME280;8498;52.516;13.790;2023-04-15T23:22:57;100916.06;;;11.45;100.00
17781;BME280;8498;52.516;13.790;2023-04-15T23:28:19;100917.97;;;11.43;100.00
17781;BME280;8498;52.516;13.790;2023-04-15T23:33:41;100923.09;;;11.46;100.00
17781;BME280;8498;52.516;13.790;2023-04-15T23:39:04;100923.19;;;11.45;100.00
17781;BME280;8498;52.516;13.790;2023-04-15T23:44:26;100924.03;;;11.45;100.00
17781;BME280;8498;52.516;13.790;2023-04-15T23:49:49;100926.91;;;11.42;100.00
17781;BME280;8498;52.516;13.790;2023-04-15T23:55:12;100933.31;;;11.39;100.00
